sensor_id;sensor_type;location;lat;lon;timestamp;temperature;humidity
16392;DHT22;8305;-33.882;151.134;2023-03-05T00:00:42;26.40;99.90
16392;DHT22;8305;-33.882;151.134;2023-03-05T00:03:15;26.50;99.90
16392;DHT22;8305;-33.882;151.134;2023-03-05T00:05:46;26.70;99.90
16392;DHT22;8305;-33.882;151.134;2023-03-05T00:08:17;26.80;99.90
16392;DHT22;8305;-33.882;151.134;2023-03-05T00:10:56;26.80;99.90
16392;DHT22;8305;-33.882;151.134;2023-03-05T00:13:27;26.90;99.90
16392;DHT22;8305;-33.882;151.134;2023-03-05T00:16:00;26.90;99.90
16392;DHT22;8305;-33.882;151.134;2023-03-05T00:18:33;26.90;99.90
16392;DHT22;8305;-33.882;151.134;2023-03-05T00:21:12;27.00;99.90
16392;DHT22;8305;-33.882;151.134;2023-03-05T00:23:46;27.10;99.90
16392;DHT22;8305;-33.882;151.134;2023-03-05T00:26:17;27.10;99.90
16392;DHT22;8305;-33.882;151.134;2023-03-05T00:28:49;27.30;99.90
16392;DHT22;8305;-33.882;151.134;2023-03-05T00:31:25;27.30;99.90
16392;DHT22;8305;-33.882;151.134;2023-03-05T00:34:00;27.40;99.90
16392;DHT22;8305;-33.882;151.134;2023-03-05T00:36:32;27.40;99.90
16392;DHT22;8305;-33.882;151.134;2023-03-05T00:39:03;27.50;99.90
16392;DHT22;8305;-33.882;151.134;2023-03-05T00:41:34;27.50;99.90
16392;DHT22;8305;-33.882;151.134;2023-03-05T00:44:05;27.60;99.90
16392;DHT22;8305;-33.882;151.134;2023-03-05T00:46:37;27.60;99.90
16392;DHT22;8305;-33.882;151.134;2023-03-05T00:49:10;27.60;99.90
16392;DHT22;8305;-33.882;151.134;2023-03-05T00:51:41;27.70;99.90
16392;DHT22;8305;-33.882;151.134;2023-03-05T00:54:12;27.80;99.90
16392;DHT22;8305;-33.882;151.134;2023-03-05T00:56:43;28.00;99.90
16392;DHT22;8305;-33.882;151.134;2023-03-05T00:59:16;28.00;99.90
16392;DHT22;8305;-33.882;151.134;2023-03-05T01:01:47;27.90;99.90
16392;DHT22;8305;-33.882;151.134;2023-03-05T01:04:20;27.90;99.90
16392;DHT22;8305;-33.882;151.134;2023-03-05T01:06:51;27.90;99.90
16392;DHT22;8305;-33.882;151.134;2023-03-05T01:09:23;28.00;99.90
16392;DHT22;8305;-33.882;151.134;2023-03-05T01:11:54;28.00;99.90
16392;DHT22;8305;-33.882;151.134;2023-03-05T01:14:27;28.20;99.90
16392;DHT22;8305;-33.882;151.134;2023-03-05T01:16:58;28.30;99.90
16392;DHT22;8305;-33.882;151.134;2023-03-05T01:19:31;28.30;99.90
16392;DHT22;8305;-33.882;151.134;2023-03-05T01:22:02;28.40;99.90
16392;DHT22;8305;-33.882;151.134;2023-03-05T01:24:33;28.60;99.90
16392;DHT22;8305;-33.882;151.134;2023-03-05T01:27:04;28.80;99.90
16392;DHT22;8305;-33.882;151.134;2023-03-05T01:29:36;28.70;99.90
16392;DHT22;8305;-33.882;151.134;2023-03-05T01:32:07;28.70;99.90
16392;DHT22;8305;-33.882;151.134;2023-03-05T01:34:40;28.70;99.90
16392;DHT22;8305;-33.882;151.134;2023-03-05T01:37:11;28.80;99.90
16392;DHT22;8305;-33.882;151.134;2023-03-05T01:39:42;28.90;99.90
16392;DHT22;8305;-33.882;151.134;2023-03-05T01:42:13;29.00;99.90
16392;DHT22;8305;-33.882;151.134;2023-03-05T01:45:01;29.10;99.90
16392;DHT22;8305;-33.882;151.134;2023-03-05T01:47:33;29.20;99.90
16392;DHT22;8305;-33.882;151.134;2023-03-05T01:50:08;29.20;99.90
16392;DHT22;8305;-33.882;151.134;2023-03-05T01:52:41;29.30;99.90
16392;DHT22;8305;-33.882;151.134;2023-03-05T01:55:15;29.40;99.90
16392;DHT22;8305;-33.882;151.134;2023-03-05T01:57:50;29.30;99.90
16392;DHT22;8305;-33.882;151.134;2023-03-05T02:00:26;29.40;99.90
16392;DHT22;8305;-33.882;151.134;2023-03-05T02:03:00;29.40;99.90
16392;DHT22;8305;-33.882;151.134;2023-03-05T02:05:36;29.40;99.90
16392;DHT22;8305;-33.882;151.134;2023-03-05T02:08:10;29.20;99.90
16392;DHT22;8305;-33.882;151.134;2023-03-05T02:10:43;29.30;99.90
16392;DHT22;8305;-33.882;151.134;2023-03-05T02:13:17;29.50;99.90
16392;DHT22;8305;-33.882;151.134;2023-03-05T02:15:53;29.60;99.90
16392;DHT22;8305;-33.882;151.134;2023-03-05T02:18:25;29.50;99.90
16392;DHT22;8305;-33.882;151.134;2023-03-05T02:21:03;29.20;99.90
16392;DHT22;8305;-33.882;151.134;2023-03-05T02:23:35;29.30;99.90
16392;DHT22;8305;-33.882;151.134;2023-03-05T02:26:09;29.00;99.90
16392;DHT22;8305;-33.882;151.134;2023-03-05T02:28:42;29.00;99.90
16392;DHT22;8305;-33.882;151.134;2023-03-05T02:31:16;28.80;99.90
16392;DHT22;8305;-33.882;151.134;2023-03-05T02:33:48;29.00;99.90
16392;DHT22;8305;-33.882;151.134;2023-03-05T02:36:22;29.10;99.90
16392;DHT22;8305;-33.882;151.134;2023-03-05T02:38:53;29.20;99.90
16392;DHT22;8305;-33.882;151.134;2023-03-05T02:41:26;29.10;99.90
16392;DHT22;8305;-33.882;151.134;2023-03-05T02:43:57;29.10;99.90
16392;DHT22;8305;-33.882;151.134;2023-03-05T02:46:28;29.10;99.90
16392;DHT22;8305;-33.882;151.134;2023-03-05T02:48:59;28.80;99.90
16392;DHT22;8305;-33.882;151.134;2023-03-05T02:51:36;28.70;99.90
16392;DHT22;8305;-33.882;151.134;2023-03-05T02:54:10;28.70;99.90
16392;DHT22;8305;-33.882;151.134;2023-03-05T02:56:44;28.50;99.90
16392;DHT22;8305;-33.882;151.134;2023-03-05T02:59:15;28.60;99.90
16392;DHT22;8305;-33.882;151.134;2023-03-05T03:01:46;28.60;99.90
16392;DHT22;8305;-33.882;151.134;2023-03-05T03:04:17;28.40;99.90
16392;DHT22;8305;-33.882;151.134;2023-03-05T03:06:50;28.40;99.90
16392;DHT22;8305;-33.882;151.134;2023-03-05T03:09:21;28.50;99.90
16392;DHT22;8305;-33.882;151.134;2023-03-05T03:11:53;28.40;99.90
16392;DHT22;8305;-33.882;151.134;2023-03-05T03:14:24;28.60;99.90
16392;DHT22;8305;-33.882;151.134;2023-03-05T03:16:55;28.60;99.90
16392;DHT22;8305;-33.882;151.134;2023-03-05T03:19:27;28.70;99.90
16392;DHT22;8305;-33.882;151.134;2023-03-05T03:22:00;28.70;99.90
16392;DHT22;8305;-33.882;151.134;2023-03-05T03:24:32;28.60;99.90
16392;DHT22;8305;-33.882;151.134;2023-03-05T03:27:03;28.60;99.90
16392;DHT22;8305;-33.882;151.134;2023-03-05T03:29:35;28.60;99.90
16392;DHT22;8305;-33.882;151.134;2023-03-05T03:32:06;28.40;99.90
16392;DHT22;8305;-33.882;151.134;2023-03-05T03:34:37;28.50;99.90
16392;DHT22;8305;-33.882;151.134;2023-03-05T03:37:10;28.60;99.90
16392;DHT22;8305;-33.882;151.134;2023-03-05T03:39:42;28.50;99.90
16392;DHT22;8305;-33.882;151.134;2023-03-05T03:42:15;28.50;99.90
16392;DHT22;8305;-33.882;151.134;2023-03-05T03:44:46;28.50;99.90
16392;DHT22;8305;-33.882;151.134;2023-03-05T03:47:17;28.40;99.90
16392;DHT22;8305;-33.882;151.134;2023-03-05T03:49:48;28.50;99.90
16392;DHT22;8305;-33.882;151.134;2023-03-05T03:52:27;28.50;99.90
16392;DHT22;8305;-33.882;151.134;2023-03-05T03:54:58;28.50;99.90
16392;DHT22;8305;-33.882;151.134;2023-03-05T03:57:31;28.50;99.90
16392;DHT22;8305;-33.882;151.134;2023-03-05T04:00:02;28.30;99.90
16392;DHT22;8305;-33.882;151.134;2023-03-05T04:02:35;28.40;99.90
16392;DHT22;8305;-33.882;151.134;2023-03-05T04:05:06;28.50;99.90
16392;DHT22;8305;-33.882;151.134;2023-03-05T04:07:39;28.60;99.90
16392;DHT22;8305;-33.882;151.134;2023-03-05T04:10:12;28.40;99.90
16392;DHT22;8305;-33.882;151.134;2023-03-05T04:12:43;28.50;99.90
16392;DHT22;8305;-33.882;151.134;2023-03-05T04:15:14;28.50;99.90
16392;DHT22;8305;-33.882;151.134;2023-03-05T04:17:45;28.40;99.90
16392;DHT22;8305;-33.882;151.134;2023-03-05T04:20:17;28.30;99.90
16392;DHT22;8305;-33.882;151.134;2023-03-05T04:22:50;28.10;99.90
16392;DHT22;8305;-33.882;151.134;2023-03-05T04:25:21;28.00;99.90
16392;DHT22;8305;-33.882;151.134;2023-03-05T04:27:52;28.00;99.90
16392;DHT22;8305;-33.882;151.134;2023-03-05T04:30:23;28.00;99.90
16392;DHT22;8305;-33.882;151.134;2023-03-05T04:32:58;27.80;99.90
16392;DHT22;8305;-33.882;151.134;2023-03-05T04:35:29;28.00;99.90
16392;DHT22;8305;-33.882;151.134;2023-03-05T04:38:02;28.00;99.90
16392;DHT22;8305;-33.882;151.134;2023-03-05T04:40:33;28.00;99.90
16392;DHT22;8305;-33.882;151.134;2023-03-05T04:43:05;27.90;99.90
16392;DHT22;8305;-33.882;151.134;2023-03-05T04:45:38;27.80;99.90
16392;DHT22;8305;-33.882;151.134;2023-03-05T04:48:11;27.70;99.90
16392;DHT22;8305;-33.882;151.134;2023-03-05T04:50:42;27.90;99.90
16392;DHT22;8305;-33.882;151.134;2023-03-05T04:53:15;27.90;99.90
16392;DHT22;8305;-33.882;151.134;2023-03-05T04:55:47;27.70;99.90
16392;DHT22;8305;-33.882;151.134;2023-03-05T04:58:22;27.80;99.90
16392;DHT22;8305;-33.882;151.134;2023-03-05T05:00:53;27.60;99.90
16392;DHT22;8305;-33.882;151.134;2023-03-05T05:03:24;27.50;99.90
16392;DHT22;8305;-33.882;151.134;2023-03-05T05:05:56;27.70;99.90
16392;DHT22;8305;-33.882;151.134;2023-03-05T05:08:29;27.70;99.90
16392;DHT22;8305;-33.882;151.134;2023-03-05T05:11:02;27.80;99.90
16392;DHT22;8305;-33.882;151.134;2023-03-05T05:13:33;27.80;99.90
16392;DHT22;8305;-33.882;151.134;2023-03-05T05:16:07;27.90;99.90
16392;DHT22;8305;-33.882;151.134;2023-03-05T05:18:38;27.80;99.90
16392;DHT22;8305;-33.882;151.134;2023-03-05T05:21:11;27.70;99.90
16392;DHT22;8305;-33.882;151.134;2023-03-05T05:23:44;27.60;99.90
16392;DHT22;8305;-33.882;151.134;2023-03-05T05:26:15;27.60;99.90
16392;DHT22;8305;-33.882;151.134;2023-03-05T05:28:46;27.60;99.90
16392;DHT22;8305;-33.882;151.134;2023-03-05T05:31:17;27.40;99.90
16392;DHT22;8305;-33.882;151.134;2023-03-05T05:33:48;27.30;99.90
16392;DHT22;8305;-33.882;151.134;2023-03-05T05:36:19;27.30;99.90
16392;DHT22;8305;-33.882;151.134;2023-03-05T05:38:53;27.40;99.90
16392;DHT22;8305;-33.882;151.134;2023-03-05T05:41:24;27.50;99.90
16392;DHT22;8305;-33.882;151.134;2023-03-05T05:43:55;27.50;99.90
16392;DHT22;8305;-33.882;151.134;2023-03-05T05:46:26;27.50;99.90
16392;DHT22;8305;-33.882;151.134;2023-03-05T05:48:57;27.60;99.90
16392;DHT22;8305;-33.882;151.134;2023-03-05T05:51:28;27.60;99.90
16392;DHT22;8305;-33.882;151.134;2023-03-05T05:54:01;27.60;99.90
16392;DHT22;8305;-33.882;151.134;2023-03-05T05:56:32;27.50;99.90
16392;DHT22;8305;-33.882;151.134;2023-03-05T05:59:04;27.30;99.90
16392;DHT22;8305;-33.882;151.134;2023-03-05T06:01:35;27.20;99.90
16392;DHT22;8305;-33.882;151.134;2023-03-05T06:04:06;27.20;99.90
16392;DHT22;8305;-33.882;151.134;2023-03-05T06:06:37;27.10;99.90
16392;DHT22;8305;-33.882;151.134;2023-03-05T06:09:10;27.10;99.90
16392;DHT22;8305;-33.882;151.134;2023-03-05T06:11:41;27.20;99.90
16392;DHT22;8305;-33.882;151.134;2023-03-05T06:14:13;27.20;99.90
16392;DHT22;8305;-33.882;151.134;2023-03-05T06:16:44;27.00;99.90
16392;DHT22;8305;-33.882;151.134;2023-03-05T06:19:16;27.00;99.90
16392;DHT22;8305;-33.882;151.134;2023-03-05T06:21:47;26.90;99.90
16392;DHT22;8305;-33.882;151.134;2023-03-05T06:24:20;26.80;99.90
16392;DHT22;8305;-33.882;151.134;2023-03-05T06:26:51;26.80;99.90
16392;DHT22;8305;-33.882;151.134;2023-03-05T06:29:22;26.80;99.90
16392;DHT22;8305;-33.882;151.134;2023-03-05T06:31:53;26.80;99.90
16392;DHT22;8305;-33.882;151.134;2023-03-05T06:34:25;26.70;99.90
16392;DHT22;8305;-33.882;151.134;2023-03-05T06:36:56;26.80;99.90
16392;DHT22;8305;-33.882;151.134;2023-03-05T06:39:29;26.60;99.90
16392;DHT22;8305;-33.882;151.134;2023-03-05T06:42:00;26.60;99.90
16392;DHT22;8305;-33.882;151.134;2023-03-05T06:44:31;26.60;99.90
16392;DHT22;8305;-33.882;151.134;2023-03-05T06:47:04;26.60;99.90
16392;DHT22;8305;-33.882;151.134;2023-03-05T06:49:35;26.60;99.90
16392;DHT22;8305;-33.882;151.134;2023-03-05T06:52:07;26.60;99.90
16392;DHT22;8305;-33.882;151.134;2023-03-05T06:54:41;26.60;99.90
16392;DHT22;8305;-33.882;151.134;2023-03-05T06:57:14;26.60;99.90
16392;DHT22;8305;-33.882;151.134;2023-03-05T06:59:45;26.60;99.90
16392;DHT22;8305;-33.882;151.134;2023-03-05T07:02:16;26.40;99.90
16392;DHT22;8305;-33.882;151.134;2023-03-05T07:04:47;26.40;99.90
16392;DHT22;8305;-33.882;151.134;2023-03-05T07:07:18;26.30;99.90
16392;DHT22;8305;-33.882;151.134;2023-03-05T07:09:51;26.30;99.90
16392;DHT22;8305;-33.882;151.134;2023-03-05T07:12:22;26.30;99.90
16392;DHT22;8305;-33.882;151.134;2023-03-05T07:14:53;26.20;99.90
16392;DHT22;8305;-33.882;151.134;2023-03-05T07:17:24;26.20;99.90
16392;DHT22;8305;-33.882;151.134;2023-03-05T07:19:55;26.20;99.90
16392;DHT22;8305;-33.882;151.134;2023-03-05T07:22:26;26.10;99.90
16392;DHT22;8305;-33.882;151.134;2023-03-05T07:25:01;26.10;99.90
16392;DHT22;8305;-33.882;151.134;2023-03-05T07:27:35;26.00;99.90
16392;DHT22;8305;-33.882;151.134;2023-03-05T07:30:07;25.90;99.90
16392;DHT22;8305;-33.882;151.134;2023-03-05T07:32:38;25.90;99.90
16392;DHT22;8305;-33.882;151.134;2023-03-05T07:35:10;25.80;99.90
16392;DHT22;8305;-33.882;151.134;2023-03-05T07:37:41;25.80;99.90
16392;DHT22;8305;-33.882;151.134;2023-03-05T07:40:14;25.70;99.90
16392;DHT22;8305;-33.882;151.134;2023-03-05T07:42:45;25.60;99.90
16392;DHT22;8305;-33.882;151.134;2023-03-05T07:45:16;25.60;99.90
16392;DHT22;8305;-33.882;151.134;2023-03-05T07:47:47;25.60;99.90
16392;DHT22;8305;-33.882;151.134;2023-03-05T07:50:18;25.60;99.90
16392;DHT22;8305;-33.882;151.134;2023-03-05T07:52:49;25.50;99.90
16392;DHT22;8305;-33.882;151.134;2023-03-05T07:55:23;25.40;99.90
16392;DHT22;8305;-33.882;151.134;2023-03-05T07:57:54;25.40;99.90
16392;DHT22;8305;-33.882;151.134;2023-03-05T08:00:25;25.30;99.90
16392;DHT22;8305;-33.882;151.134;2023-03-05T08:02:56;25.30;99.90
16392;DHT22;8305;-33.882;151.134;2023-03-05T08:05:27;25.20;99.90
16392;DHT22;8305;-33.882;151.134;2023-03-05T08:07:58;25.20;99.90
16392;DHT22;8305;-33.882;151.134;2023-03-05T08:10:31;25.10;99.90
16392;DHT22;8305;-33.882;151.134;2023-03-05T08:13:06;25.10;99.90
16392;DHT22;8305;-33.882;151.134;2023-03-05T08:15:38;25.00;99.90
16392;DHT22;8305;-33.882;151.134;2023-03-05T08:18:09;25.00;99.90
16392;DHT22;8305;-33.882;151.134;2023-03-05T08:20:40;25.00;99.90
16392;DHT22;8305;-33.882;151.134;2023-03-05T08:23:11;25.00;99.90
16392;DHT22;8305;-33.882;151.134;2023-03-05T08:25:44;24.90;99.90
16392;DHT22;8305;-33.882;151.134;2023-03-05T08:28:15;24.90;99.90
16392;DHT22;8305;-33.882;151.134;2023-03-05T08:30:47;24.80;99.90
16392;DHT22;8305;-33.882;151.134;2023-03-05T08:33:19;24.80;99.90
16392;DHT22;8305;-33.882;151.134;2023-03-05T08:35:50;24.80;99.90
16392;DHT22;8305;-33.882;151.134;2023-03-05T08:38:21;24.80;99.90
16392;DHT22;8305;-33.882;151.134;2023-03-05T08:40:54;24.70;99.90
16392;DHT22;8305;-33.882;151.134;2023-03-05T08:43:25;24.70;99.90
16392;DHT22;8305;-33.882;151.134;2023-03-05T08:45:56;24.60;99.90
16392;DHT22;8305;-33.882;151.134;2023-03-05T08:48:27;24.60;99.90
16392;DHT22;8305;-33.882;151.134;2023-03-05T08:51:03;24.60;99.90
16392;DHT22;8305;-33.882;151.134;2023-03-05T08:53:35;24.60;99.90
16392;DHT22;8305;-33.882;151.134;2023-03-05T08:56:08;24.60;99.90
16392;DHT22;8305;-33.882;151.134;2023-03-05T08:58:39;24.50;99.90
16392;DHT22;8305;-33.882;151.134;2023-03-05T09:01:11;24.50;99.90
16392;DHT22;8305;-33.882;151.134;2023-03-05T09:03:42;24.50;99.90
16392;DHT22;8305;-33.882;151.134;2023-03-05T09:06:13;24.50;99.90
16392;DHT22;8305;-33.882;151.134;2023-03-05T09:08:45;24.50;99.90
16392;DHT22;8305;-33.882;151.134;2023-03-05T09:11:18;24.50;99.90
16392;DHT22;8305;-33.882;151.134;2023-03-05T09:13:50;24.50;99.90
16392;DHT22;8305;-33.882;151.134;2023-03-05T09:16:21;24.40;99.90
16392;DHT22;8305;-33.882;151.134;2023-03-05T09:18:52;24.50;99.90
16392;DHT22;8305;-33.882;151.134;2023-03-05T09:21:23;24.50;99.90
16392;DHT22;8305;-33.882;151.134;2023-03-05T09:23:55;24.40;99.90
16392;DHT22;8305;-33.882;151.134;2023-03-05T09:26:29;24.40;99.90
16392;DHT22;8305;-33.882;151.134;2023-03-05T09:29:00;24.40;99.90
16392;DHT22;8305;-33.882;151.134;2023-03-05T09:31:31;24.40;99.90
16392;DHT22;8305;-33.882;151.134;2023-03-05T09:34:02;24.40;99.90
16392;DHT22;8305;-33.882;151.134;2023-03-05T09:36:34;24.40;99.90
16392;DHT22;8305;-33.882;151.134;2023-03-05T09:39:05;24.40;99.90
16392;DHT22;8305;-33.882;151.134;2023-03-05T09:44:40;24.30;99.90
16392;DHT22;8305;-33.882;151.134;2023-03-05T09:47:27;24.40;99.90
16392;DHT22;8305;-33.882;151.134;2023-03-05T09:50:09;24.30;99.90
16392;DHT22;8305;-33.882;151.134;2023-03-05T09:52:46;24.40;99.90
16392;DHT22;8305;-33.882;151.134;2023-03-05T09:55:24;24.30;99.90
16392;DHT22;8305;-33.882;151.134;2023-03-05T09:58:04;24.40;99.90
16392;DHT22;8305;-33.882;151.134;2023-03-05T10:00:42;24.30;99.90
16392;DHT22;8305;-33.882;151.134;2023-03-05T10:03:18;24.30;99.90
16392;DHT22;8305;-33.882;151.134;2023-03-05T10:06:05;24.40;99.90
16392;DHT22;8305;-33.882;151.134;2023-03-05T10:08:51;24.40;99.90
16392;DHT22;8305;-33.882;151.134;2023-03-05T10:11:42;24.30;99.90
16392;DHT22;8305;-33.882;151.134;2023-03-05T10:14:23;24.40;99.90
16392;DHT22;8305;-33.882;151.134;2023-03-05T10:17:32;24.30;99.90
16392;DHT22;8305;-33.882;151.134;2023-03-05T10:23:38;24.30;99.90
16392;DHT22;8305;-33.882;151.134;2023-03-05T10:26:25;24.30;99.90
16392;DHT22;8305;-33.882;151.134;2023-03-05T10:29:10;24.30;99.90
16392;DHT22;8305;-33.882;151.134;2023-03-05T10:31:57;24.20;99.90
16392;DHT22;8305;-33.882;151.134;2023-03-05T10:35:03;24.20;99.90
16392;DHT22;8305;-33.882;151.134;2023-03-05T10:40:31;24.20;99.90
16392;DHT22;8305;-33.882;151.134;2023-03-05T10:43:14;24.20;99.90
16392;DHT22;8305;-33.882;151.134;2023-03-05T10:45:48;24.20;99.90
16392;DHT22;8305;-33.882;151.134;2023-03-05T10:48:32;24.20;99.90
16392;DHT22;8305;-33.882;151.134;2023-03-05T10:51:11;24.20;99.90
16392;DHT22;8305;-33.882;151.134;2023-03-05T10:53:51;24.20;99.90
16392;DHT22;8305;-33.882;151.134;2023-03-05T10:56:26;24.20;99.90
16392;DHT22;8305;-33.882;151.134;2023-03-05T10:58:58;24.20;99.90
16392;DHT22;8305;-33.882;151.134;2023-03-05T11:01:30;24.10;99.90
16392;DHT22;8305;-33.882;151.134;2023-03-05T11:04:03;24.10;99.90
16392;DHT22;8305;-33.882;151.134;2023-03-05T11:06:37;24.10;99.90
16392;DHT22;8305;-33.882;151.134;2023-03-05T11:09:22;24.10;99.90
16392;DHT22;8305;-33.882;151.134;2023-03-05T11:12:16;24.10;99.90
16392;DHT22;8305;-33.882;151.134;2023-03-05T11:15:03;24.10;99.90
16392;DHT22;8305;-33.882;151.134;2023-03-05T11:17:37;24.10;99.90
16392;DHT22;8305;-33.882;151.134;2023-03-05T11:20:31;24.10;99.90
16392;DHT22;8305;-33.882;151.134;2023-03-05T11:23:08;24.10;99.90
16392;DHT22;8305;-33.882;151.134;2023-03-05T11:25:57;24.10;99.90
16392;DHT22;8305;-33.882;151.134;2023-03-05T11:28:31;24.10;99.90
16392;DHT22;8305;-33.882;151.134;2023-03-05T11:31:19;24.00;99.90
16392;DHT22;8305;-33.882;151.134;2023-03-05T11:34:01;24.00;99.90
16392;DHT22;8305;-33.882;151.134;2023-03-05T11:36:36;24.00;99.90
16392;DHT22;8305;-33.882;151.134;2023-03-05T11:39:14;24.00;99.90
16392;DHT22;8305;-33.882;151.134;2023-03-05T11:41:49;24.00;99.90
16392;DHT22;8305;-33.882;151.134;2023-03-05T11:44:22;24.00;99.90
16392;DHT22;8305;-33.882;151.134;2023-03-05T11:46:56;24.00;99.90
16392;DHT22;8305;-33.882;151.134;2023-03-05T11:49:30;24.00;99.90
16392;DHT22;8305;-33.882;151.134;2023-03-05T11:52:07;24.00;99.90
16392;DHT22;8305;-33.882;151.134;2023-03-05T11:54:51;23.90;99.90
16392;DHT22;8305;-33.882;151.134;2023-03-05T11:57:26;23.90;99.90
16392;DHT22;8305;-33.882;151.134;2023-03-05T12:00:00;23.90;99.90
16392;DHT22;8305;-33.882;151.134;2023-03-05T12:02:39;23.90;99.90
16392;DHT22;8305;-33.882;151.134;2023-03-05T12:05:14;23.80;99.90
16392;DHT22;8305;-33.882;151.134;2023-03-05T12:07:49;23.80;99.90
16392;DHT22;8305;-33.882;151.134;2023-03-05T12:10:21;23.80;99.90
16392;DHT22;8305;-33.882;151.134;2023-03-05T12:12:58;23.80;99.90
16392;DHT22;8305;-33.882;151.134;2023-03-05T12:15:39;23.80;99.90
16392;DHT22;8305;-33.882;151.134;2023-03-05T12:18:27;23.80;99.90
16392;DHT22;8305;-33.882;151.134;2023-03-05T12:21:05;23.70;99.90
16392;DHT22;8305;-33.882;151.134;2023-03-05T12:23:49;23.70;99.90
16392;DHT22;8305;-33.882;151.134;2023-03-05T12:27:04;23.70;99.90
16392;DHT22;8305;-33.882;151.134;2023-03-05T12:29:41;23.80;99.90
16392;DHT22;8305;-33.882;151.134;2023-03-05T12:35:35;23.80;99.90
16392;DHT22;8305;-33.882;151.134;2023-03-05T12:38:31;23.70;99.90
16392;DHT22;8305;-33.882;151.134;2023-03-05T12:44:17;23.70;99.90
16392;DHT22;8305;-33.882;151.134;2023-03-05T12:47:15;23.70;99.90
16392;DHT22;8305;-33.882;151.134;2023-03-05T12:49:50;23.70;99.90
16392;DHT22;8305;-33.882;151.134;2023-03-05T12:52:27;23.70;99.90
16392;DHT22;8305;-33.882;151.134;2023-03-05T12:55:29;23.70;99.90
16392;DHT22;8305;-33.882;151.134;2023-03-05T12:58:08;23.70;99.90
16392;DHT22;8305;-33.882;151.134;2023-03-05T13:00:48;23.60;99.90
16392;DHT22;8305;-33.882;151.134;2023-03-05T13:03:26;23.60;99.90
16392;DHT22;8305;-33.882;151.134;2023-03-05T13:05:58;23.60;99.90
16392;DHT22;8305;-33.882;151.134;2023-03-05T13:08:32;23.60;99.90
16392;DHT22;8305;-33.882;151.134;2023-03-05T13:11:07;23.60;99.90
16392;DHT22;8305;-33.882;151.134;2023-03-05T13:13:42;23.60;99.90
16392;DHT22;8305;-33.882;151.134;2023-03-05T13:16:21;23.60;99.90
16392;DHT22;8305;-33.882;151.134;2023-03-05T13:18:53;23.60;99.90
16392;DHT22;8305;-33.882;151.134;2023-03-05T13:21:26;23.50;99.90
16392;DHT22;8305;-33.882;151.134;2023-03-05T13:23:59;23.50;99.90
16392;DHT22;8305;-33.882;151.134;2023-03-05T13:26:37;23.50;99.90
16392;DHT22;8305;-33.882;151.134;2023-03-05T13:29:11;23.50;99.90
16392;DHT22;8305;-33.882;151.134;2023-03-05T13:31:46;23.50;99.90
16392;DHT22;8305;-33.882;151.134;2023-03-05T13:34:21;23.50;99.90
16392;DHT22;8305;-33.882;151.134;2023-03-05T13:36:58;23.50;99.90
16392;DHT22;8305;-33.882;151.134;2023-03-05T13:39:31;23.40;99.90
16392;DHT22;8305;-33.882;151.134;2023-03-05T13:42:04;23.40;99.90
16392;DHT22;8305;-33.882;151.134;2023-03-05T13:44:36;23.40;99.90
16392;DHT22;8305;-33.882;151.134;2023-03-05T13:47:16;23.40;99.90
16392;DHT22;8305;-33.882;151.134;2023-03-05T13:49:55;23.40;99.90
16392;DHT22;8305;-33.882;151.134;2023-03-05T13:52:29;23.40;99.90
16392;DHT22;8305;-33.882;151.134;2023-03-05T13:55:04;23.40;99.90
16392;DHT22;8305;-33.882;151.134;2023-03-05T13:57:44;23.40;99.90
16392;DHT22;8305;-33.882;151.134;2023-03-05T14:00:31;23.40;99.90
16392;DHT22;8305;-33.882;151.134;2023-03-05T14:03:21;23.40;99.90
16392;DHT22;8305;-33.882;151.134;2023-03-05T14:05:54;23.30;99.90
16392;DHT22;8305;-33.882;151.134;2023-03-05T14:08:25;23.30;99.90
16392;DHT22;8305;-33.882;151.134;2023-03-05T14:10:59;23.30;99.90
16392;DHT22;8305;-33.882;151.134;2023-03-05T14:13:42;23.30;99.90
16392;DHT22;8305;-33.882;151.134;2023-03-05T14:16:22;23.30;99.90
16392;DHT22;8305;-33.882;151.134;2023-03-05T14:18:57;23.20;99.90
16392;DHT22;8305;-33.882;151.134;2023-03-05T14:21:44;23.20;99.90
16392;DHT22;8305;-33.882;151.134;2023-03-05T14:24:21;23.20;99.90
16392;DHT22;8305;-33.882;151.134;2023-03-05T14:26:54;23.20;99.90
16392;DHT22;8305;-33.882;151.134;2023-03-05T14:29:26;23.20;99.90
16392;DHT22;8305;-33.882;151.134;2023-03-05T14:32:00;23.20;99.90
16392;DHT22;8305;-33.882;151.134;2023-03-05T14:34:36;23.20;99.90
16392;DHT22;8305;-33.882;151.134;2023-03-05T14:37:18;23.20;99.90
16392;DHT22;8305;-33.882;151.134;2023-03-05T14:39:52;23.20;99.90
16392;DHT22;8305;-33.882;151.134;2023-03-05T14:42:29;23.20;99.90
16392;DHT22;8305;-33.882;151.134;2023-03-05T14:45:08;23.20;99.90
16392;DHT22;8305;-33.882;151.134;2023-03-05T14:47:40;23.10;99.90
16392;DHT22;8305;-33.882;151.134;2023-03-05T14:50:16;23.10;99.90
16392;DHT22;8305;-33.882;151.134;2023-03-05T14:52:47;23.00;99.90
16392;DHT22;8305;-33.882;151.134;2023-03-05T14:55:21;23.00;99.90
16392;DHT22;8305;-33.882;151.134;2023-03-05T14:57:56;23.00;99.90
16392;DHT22;8305;-33.882;151.134;2023-03-05T15:00:30;23.00;99.90
16392;DHT22;8305;-33.882;151.134;2023-03-05T15:03:02;23.00;99.90
16392;DHT22;8305;-33.882;151.134;2023-03-05T15:05:37;23.00;99.90
16392;DHT22;8305;-33.882;151.134;2023-03-05T15:08:13;22.90;99.90
16392;DHT22;8305;-33.882;151.134;2023-03-05T15:10:45;22.90;99.90
16392;DHT22;8305;-33.882;151.134;2023-03-05T15:13:16;22.90;99.90
16392;DHT22;8305;-33.882;151.134;2023-03-05T15:15:48;22.90;99.90
16392;DHT22;8305;-33.882;151.134;2023-03-05T15:18:21;22.90;99.90
16392;DHT22;8305;-33.882;151.134;2023-03-05T15:20:54;22.90;99.90
16392;DHT22;8305;-33.882;151.134;2023-03-05T15:23:26;22.80;99.90
16392;DHT22;8305;-33.882;151.134;2023-03-05T15:26:02;22.80;99.90
16392;DHT22;8305;-33.882;151.134;2023-03-05T15:28:34;22.80;99.90
16392;DHT22;8305;-33.882;151.134;2023-03-05T15:31:05;22.80;99.90
16392;DHT22;8305;-33.882;151.134;2023-03-05T15:33:37;22.80;99.90
16392;DHT22;8305;-33.882;151.134;2023-03-05T15:36:11;22.80;99.90
16392;DHT22;8305;-33.882;151.134;2023-03-05T15:38:42;22.70;99.90
16392;DHT22;8305;-33.882;151.134;2023-03-05T15:41:14;22.70;99.90
16392;DHT22;8305;-33.882;151.134;2023-03-05T15:43:45;22.60;99.90
16392;DHT22;8305;-33.882;151.134;2023-03-05T15:46:16;22.60;99.90
16392;DHT22;8305;-33.882;151.134;2023-03-05T15:48:48;22.60;99.90
16392;DHT22;8305;-33.882;151.134;2023-03-05T15:51:20;22.60;99.90
16392;DHT22;8305;-33.882;151.134;2023-03-05T15:53:52;22.60;99.90
16392;DHT22;8305;-33.882;151.134;2023-03-05T15:56:23;22.60;99.90
16392;DHT22;8305;-33.882;151.134;2023-03-05T15:58:54;22.60;99.90
16392;DHT22;8305;-33.882;151.134;2023-03-05T16:01:25;22.60;99.90